Time;durP1;ratioP1;P1;durP2;ratioP2;P2;SDS_P1;SDS_P2;PMS_P1;PMS_P2;Temp;Humidity;BMP_temperature;BMP_pressure;BME280_temperature;BME280_humidity;BME280_pressure;Samples;Min_cycle;Max_cycle;Signal;HPM_P1;HPM_P2
2022/05/13 00:02:17;;;;;;;72.68;50.83;;;19.20;56.50;;;;;;4921497;28;90770;-43
2022/05/13 00:04:42;;;;;;;71.20;50.45;;;19.20;56.60;;;;;;4926188;28;89861;-41
2022/05/13 00:07:08;;;;;;;71.07;50.40;;;19.20;56.40;;;;;;4917812;28;89883;-40
2022/05/13 00:12:19;;;;;;;71.63;50.42;;;19.20;56.60;;;;;;4925454;28;90845;-40
2022/05/13 00:14:45;;;;;;;74.53;50.33;;;19.20;56.70;;;;;;4920338;28;92055;-42
2022/05/13 00:17:11;;;;;;;72.10;50.60;;;19.20;56.70;;;;;;4925444;28;90794;-40
2022/05/13 00:19:37;;;;;;;73.13;50.47;;;19.20;56.60;;;;;;4920936;28;90451;-41
2022/05/13 00:22:03;;;;;;;73.18;50.53;;;19.10;57.00;;;;;;4928380;28;89711;-41
2022/05/13 00:24:29;;;;;;;71.13;50.38;;;19.10;56.80;;;;;;4925250;28;91934;-43
2022/05/13 00:26:55;;;;;;;71.60;50.45;;;19.10;56.90;;;;;;4904850;28;91290;-43
2022/05/13 00:29:20;;;;;;;71.10;50.47;;;19.10;56.60;;;;;;4927177;28;89699;-40
2022/05/13 00:31:46;;;;;;;72.03;50.72;;;19.10;56.80;;;;;;4924950;28;89416;-40
2022/05/13 00:34:13;;;;;;;72.43;50.65;;;19.10;57.10;;;;;;4921989;28;91308;-41
2022/05/13 00:36:39;;;;;;;72.68;50.67;;;19.10;57.00;;;;;;4920515;28;90117;-41
2022/05/13 00:39:06;;;;;;;71.82;50.53;;;19.00;56.80;;;;;;4924458;28;91455;-43
2022/05/13 00:41:32;;;;;;;72.43;50.67;;;19.10;57.20;;;;;;4919258;28;90997;-42
2022/05/13 00:43:58;;;;;;;73.57;50.78;;;19.00;57.00;;;;;;4920899;28;90152;-42
2022/05/13 00:46:26;;;;;;;73.38;50.50;;;19.10;57.10;;;;;;4917620;28;92845;-39
2022/05/13 00:48:52;;;;;;;72.45;50.67;;;19.00;57.30;;;;;;4924450;28;90450;-41
2022/05/13 00:51:23;;;;;;;72.68;50.50;;;19.00;57.00;;;;;;4925729;28;90111;-43
2022/05/13 00:53:48;;;;;;;71.38;50.42;;;19.00;56.80;;;;;;4926262;28;90298;-42
2022/05/13 00:56:15;;;;;;;71.30;50.45;;;19.00;57.10;;;;;;4923142;28;89733;-42
2022/05/13 00:58:46;;;;;;;70.72;50.17;;;19.00;57.00;;;;;;4927521;28;90856;-41
2022/05/13 01:01:13;;;;;;;71.00;50.33;;;19.00;57.00;;;;;;4922091;28;91568;-42
2022/05/13 01:03:39;;;;;;;71.03;50.40;;;18.90;56.90;;;;;;4930537;28;91145;-41
2022/05/13 01:06:10;;;;;;;73.40;50.55;;;18.90;57.30;;;;;;4927986;28;91592;-40
2022/05/13 01:08:36;;;;;;;71.67;50.30;;;18.90;57.10;;;;;;4915843;28;90313;-43
2022/05/13 01:11:08;;;;;;;71.90;50.25;;;18.90;56.90;;;;;;4933358;28;90621;-43
2022/05/13 01:13:34;;;;;;;72.78;50.65;;;18.80;57.20;;;;;;4921963;28;90392;-44
2022/05/13 01:16:00;;;;;;;71.55;50.25;;;18.80;57.30;;;;;;4928961;28;90094;-40
2022/05/13 01:18:28;;;;;;;70.80;50.22;;;18.80;57.40;;;;;;4929677;28;90834;-40
2022/05/13 01:20:54;;;;;;;71.60;50.47;;;18.80;57.40;;;;;;4933636;28;89016;-41
2022/05/13 01:23:21;;;;;;;72.03;50.45;;;18.80;57.40;;;;;;4926156;28;90448;-43
2022/05/13 01:25:53;;;;;;;71.70;50.53;;;18.80;57.50;;;;;;4928753;28;89927;-41
2022/05/13 01:28:25;;;;;;;71.00;50.45;;;18.80;57.30;;;;;;4911048;28;93204;-43
2022/05/13 01:30:54;;;;;;;72.55;50.58;;;18.80;57.30;;;;;;4927113;28;89796;-42
2022/05/13 01:33:21;;;;;;;70.63;50.38;;;18.80;57.40;;;;;;4926447;28;90463;-42
2022/05/13 01:35:50;;;;;;;70.65;50.28;;;18.80;57.60;;;;;;4933957;28;90477;-42
2022/05/13 01:38:19;;;;;;;71.63;50.53;;;18.70;57.60;;;;;;4927587;28;89936;-41
2022/05/13 01:40:45;;;;;;;72.30;50.55;;;18.70;57.30;;;;;;4928294;28;90644;-44
2022/05/13 01:43:10;;;;;;;72.47;50.58;;;18.70;57.20;;;;;;4927164;28;95710;-41
2022/05/13 01:45:37;;;;;;;73.22;50.35;;;18.70;57.50;;;;;;4928379;28;89706;-43
2022/05/13 01:48:04;;;;;;;70.60;50.22;;;18.60;57.50;;;;;;4919366;28;90666;-40
2022/05/13 01:50:30;;;;;;;72.80;50.33;;;18.70;57.50;;;;;;4932667;28;90311;-41
2022/05/13 01:52:55;;;;;;;72.00;50.30;;;18.60;57.70;;;;;;4921439;28;91991;-43
2022/05/13 01:55:22;;;;;;;71.20;50.42;;;18.60;57.20;;;;;;4929309;28;91148;-42
2022/05/13 01:57:49;;;;;;;72.03;50.55;;;18.60;57.60;;;;;;4932217;28;90365;-40
2022/05/13 02:00:16;;;;;;;71.30;50.17;;;18.60;57.40;;;;;;4931691;28;89503;-40
2022/05/13 02:05:26;;;;;;;71.90;50.50;;;18.60;57.70;;;;;;4930134;28;89909;-42
2022/05/13 02:07:52;;;;;;;71.53;50.15;;;18.60;57.80;;;;;;4927759;28;90801;-41
2022/05/13 02:10:18;;;;;;;73.55;50.42;;;18.50;57.70;;;;;;4928848;28;89941;-41
2022/05/13 02:12:44;;;;;;;71.03;50.28;;;18.50;57.70;;;;;;4928684;28;90269;-39
2022/05/13 02:15:10;;;;;;;71.82;50.53;;;18.40;58.10;;;;;;4925671;28;89985;-39
2022/05/13 02:17:36;;;;;;;71.18;50.30;;;18.50;57.90;;;;;;4926782;28;91077;-41
2022/05/13 02:20:08;;;;;;;71.70;50.20;;;18.40;57.90;;;;;;4925455;28;90237;-41
2022/05/13 02:22:34;;;;;;;71.35;50.05;;;18.40;58.10;;;;;;4932007;28;92697;-41
2022/05/13 02:25:00;;;;;;;72.97;50.45;;;18.50;57.90;;;;;;4928563;28;89545;-42
2022/05/13 02:27:26;;;;;;;70.70;50.17;;;18.40;57.60;;;;;;4921957;28;90270;-43
2022/05/13 02:29:51;;;;;;;70.68;50.28;;;18.50;57.90;;;;;;4924394;28;90369;-40
2022/05/13 02:32:17;;;;;;;70.97;50.35;;;18.40;57.90;;;;;;4930924;28;90033;-41
2022/05/13 02:34:43;;;;;;;70.68;50.55;;;18.40;58.00;;;;;;4922098;28;89216;-42
2022/05/13 02:37:08;;;;;;;72.60;50.25;;;18.40;58.10;;;;;;4924127;28;91184;-40
2022/05/13 02:39:34;;;;;;;71.13;50.35;;;18.40;58.10;;;;;;4922681;28;90211;-41
2022/05/13 02:41:59;;;;;;;70.40;50.05;;;18.40;58.20;;;;;;4927370;28;91893;-41
2022/05/13 02:44:25;;;;;;;70.93;50.38;;;18.30;58.20;;;;;;4922412;28;96014;-42
2022/05/13 02:46:52;;;;;;;70.93;50.17;;;18.30;58.30;;;;;;4930243;28;90603;-43
2022/05/13 02:49:18;;;;;;;70.82;50.38;;;18.30;58.20;;;;;;4916034;28;90174;-42
2022/05/13 02:51:47;;;;;;;70.45;50.03;;;18.30;57.90;;;;;;4931444;28;90209;-41
2022/05/13 02:54:13;;;;;;;71.60;50.13;;;18.30;58.30;;;;;;4926463;28;90080;-40
2022/05/13 02:56:38;;;;;;;72.05;50.35;;;18.30;58.10;;;;;;4922048;28;89896;-41
2022/05/13 02:59:05;;;;;;;71.63;50.40;;;18.30;58.30;;;;;;4923815;28;89125;-42
2022/05/13 03:01:32;;;;;;;71.15;50.45;;;18.30;58.30;;;;;;4931895;28;89965;-42
2022/05/13 03:03:58;;;;;;;70.50;50.28;;;18.30;58.50;;;;;;4933579;28;90091;-43
2022/05/13 03:06:25;;;;;;;71.75;50.42;;;18.30;58.30;;;;;;4926844;28;91165;-42
2022/05/13 03:08:51;;;;;;;72.00;50.55;;;18.30;58.20;;;;;;4922392;28;89991;-40
2022/05/13 03:11:17;;;;;;;71.95;50.05;;;18.30;58.60;;;;;;4930705;28;91682;-42
2022/05/13 03:13:42;;;;;;;70.47;50.25;;;18.30;58.20;;;;;;4923990;28;91065;-43
2022/05/13 03:16:11;;;;;;;71.63;50.25;;;18.20;58.40;;;;;;4927005;28;91354;-39
2022/05/13 03:18:40;;;;;;;71.32;50.13;;;18.20;58.10;;;;;;4927484;28;90707;-40
2022/05/13 03:21:07;;;;;;;71.53;50.08;;;18.20;58.00;;;;;;4927009;28;90025;-41
2022/05/13 03:23:33;;;;;;;70.65;50.15;;;18.20;58.20;;;;;;4925204;28;90237;-41
2022/05/13 03:25:59;;;;;;;70.28;50.13;;;18.20;58.60;;;;;;4935422;28;90031;-41
2022/05/13 03:28:25;;;;;;;71.32;50.35;;;18.20;58.50;;;;;;4926294;28;89897;-42
2022/05/13 03:30:51;;;;;;;71.22;50.08;;;18.20;58.30;;;;;;4929451;28;91449;-43
2022/05/13 03:33:18;;;;;;;71.85;50.03;;;18.20;58.30;;;;;;4932955;28;93033;-42
2022/05/13 03:35:44;;;;;;;70.55;50.03;;;18.20;58.50;;;;;;4931724;28;90049;-40
2022/05/13 03:38:09;;;;;;;70.95;50.03;;;18.10;58.30;;;;;;4922197;28;92023;-41
2022/05/13 03:40:36;;;;;;;72.43;50.15;;;18.20;58.50;;;;;;4918618;28;89978;-41
2022/05/13 03:43:03;;;;;;;70.50;50.20;;;18.20;58.20;;;;;;4925484;28;89874;-42
2022/05/13 03:45:30;;;;;;;70.47;50.17;;;18.20;58.30;;;;;;4926086;28;91245;-45
2022/05/13 03:47:56;;;;;;;70.88;50.15;;;18.10;58.40;;;;;;4929580;28;94355;-42
2022/05/13 03:50:22;;;;;;;70.57;50.17;;;18.10;59.10;;;;;;4914612;28;91038;-41
2022/05/13 03:52:47;;;;;;;71.07;50.00;;;18.10;58.30;;;;;;4921127;28;90493;-41
2022/05/13 03:55:13;;;;;;;72.05;50.13;;;18.10;58.40;;;;;;4924595;28;92116;-40
2022/05/13 03:57:39;;;;;;;70.90;50.10;;;18.10;58.40;;;;;;4929166;28;89754;-41
2022/05/13 04:00:06;;;;;;;72.10;50.25;;;18.10;58.50;;;;;;4920350;28;90680;-44
2022/05/13 04:02:32;;;;;;;71.15;50.10;;;18.10;58.50;;;;;;4917840;28;90854;-42
2022/05/13 04:10:28;;;;;;;70.57;49.92;;;18.00;58.60;;;;;;4917479;28;90481;-44
2022/05/13 04:18:22;;;;;;;71.90;50.03;;;18.00;58.60;;;;;;4930622;28;90089;-41
2022/05/13 04:20:47;;;;;;;74.47;50.28;;;18.00;58.60;;;;;;4923656;28;91348;-44
2022/05/13 04:23:14;;;;;;;71.00;50.15;;;18.00;58.60;;;;;;4927294;28;91417;-41
2022/05/13 04:25:40;;;;;;;71.07;50.25;;;18.00;58.60;;;;;;4919830;28;94219;-42
2022/05/13 04:28:06;;;;;;;70.47;49.95;;;18.00;58.50;;;;;;4918936;28;90198;-43
2022/05/13 04:30:31;;;;;;;70.90;49.97;;;18.00;58.60;;;;;;4913131;28;89652;-42
2022/05/13 04:32:57;;;;;;;69.22;50.08;;;18.00;58.30;;;;;;4928864;28;90373;-39
2022/05/13 04:35:23;;;;;;;70.55;50.25;;;18.00;58.40;;;;;;4920110;28;90073;-41
2022/05/13 04:37:48;;;;;;;70.03;50.10;;;18.00;58.40;;;;;;4926260;28;89050;-44
2022/05/13 04:40:14;;;;;;;70.03;49.95;;;18.00;58.40;;;;;;4925263;28;92818;-43
2022/05/13 04:42:49;;;;;;;70.88;50.00;;;18.10;58.50;;;;;;4919450;28;89469;-41
2022/05/13 04:45:17;;;;;;;71.15;49.83;;;18.00;58.40;;;;;;4920229;28;91005;-44
2022/05/13 04:50:27;;;;;;;69.40;49.78;;;18.00;58.70;;;;;;4915394;28;90391;-43
2022/05/13 04:52:52;;;;;;;71.60;50.25;;;18.00;58.60;;;;;;4923089;28;90618;-43
2022/05/13 04:55:18;;;;;;;72.38;49.97;;;18.00;58.40;;;;;;4925106;28;89891;-43
2022/05/13 04:57:44;;;;;;;69.68;49.95;;;18.00;58.30;;;;;;4925941;28;89920;-43
2022/05/13 05:00:10;;;;;;;70.00;50.00;;;18.00;58.50;;;;;;4914789;28;90743;-42
2022/05/13 05:02:36;;;;;;;69.28;50.10;;;18.00;58.40;;;;;;4926606;28;89678;-43
2022/05/13 05:05:01;;;;;;;71.18;50.35;;;18.10;58.30;;;;;;4925619;28;91314;-42
2022/05/13 05:07:27;;;;;;;69.68;50.05;;;18.00;58.30;;;;;;4929791;28;90547;-43
2022/05/13 05:09:52;;;;;;;70.97;50.38;;;18.00;58.20;;;;;;4916967;28;90526;-42
2022/05/13 05:12:18;;;;;;;70.40;50.17;;;18.10;58.20;;;;;;4923054;28;95480;-43
2022/05/13 05:14:44;;;;;;;70.97;50.08;;;18.10;58.30;;;;;;4917881;28;91916;-43
2022/05/13 05:17:10;;;;;;;71.03;50.25;;;18.10;58.10;;;;;;4916440;28;90651;-44
2022/05/13 05:19:35;;;;;;;71.57;50.08;;;18.10;58.20;;;;;;4913647;28;90752;-42
2022/05/13 05:22:01;;;;;;;71.07;50.20;;;18.10;58.40;;;;;;4917685;28;90839;-43
2022/05/13 05:24:27;;;;;;;71.85;50.13;;;18.10;58.00;;;;;;4923720;28;90083;-43
2022/05/13 05:26:53;;;;;;;71.57;50.30;;;18.10;58.20;;;;;;4921097;28;89194;-42
2022/05/13 05:29:18;;;;;;;70.18;50.38;;;18.20;58.10;;;;;;4923128;28;89855;-44
2022/05/13 05:31:44;;;;;;;72.30;50.80;;;18.20;58.50;;;;;;4918258;28;90356;-43
2022/05/13 05:34:11;;;;;;;76.80;50.42;;;18.20;58.50;;;;;;4926168;28;91384;-43
2022/05/13 05:36:37;;;;;;;74.57;51.53;;;18.30;59.80;;;;;;4925466;28;92761;-42
2022/05/13 05:39:03;;;;;;;80.43;51.25;;;18.50;59.50;;;;;;4929370;28;90874;-42
2022/05/13 05:41:29;;;;;;;91.90;51.90;;;18.60;59.10;;;;;;4908373;28;90472;-41
2022/05/13 05:43:54;;;;;;;79.97;51.80;;;18.80;58.90;;;;;;4918287;28;94706;-44
2022/05/13 05:46:20;;;;;;;84.18;52.63;;;18.90;59.00;;;;;;4918196;28;90707;-44
2022/05/13 05:48:46;;;;;;;82.65;52.53;;;19.00;59.00;;;;;;4922771;28;94744;-44
2022/05/13 05:51:11;;;;;;;83.57;53.40;;;19.10;59.00;;;;;;4920063;28;88841;-43
2022/05/13 05:59:07;;;;;;;87.88;53.60;;;19.20;59.10;;;;;;4917027;28;90756;-43
2022/05/13 06:01:33;;;;;;;82.32;53.10;;;19.20;56.90;;;;;;4907726;28;91000;-44
2022/05/13 06:03:58;;;;;;;86.75;52.65;;;18.60;58.50;;;;;;4924908;28;89760;-43
2022/05/13 06:06:25;;;;;;;81.55;51.92;;;18.10;59.60;;;;;;4917610;28;90648;-44
2022/05/13 06:08:54;;;;;;;78.18;51.88;;;17.70;60.30;;;;;;4923730;28;90105;-47
2022/05/13 06:11:20;;;;;;;80.32;52.13;;;17.50;61.60;;;;;;4916044;28;89853;-44
2022/05/13 06:13:45;;;;;;;80.22;51.78;;;17.40;61.30;;;;;;4916020;28;95367;-43
2022/05/13 06:16:11;;;;;;;77.57;51.40;;;17.40;62.10;;;;;;4923019;28;88583;-42
2022/05/13 06:18:37;;;;;;;79.05;51.10;;;17.30;62.10;;;;;;4919982;28;90561;-43
2022/05/13 06:21:04;;;;;;;76.90;51.20;;;17.30;62.50;;;;;;4920159;28;90178;-44
2022/05/13 06:23:29;;;;;;;78.60;51.35;;;17.20;62.70;;;;;;4910664;28;91448;-44
2022/05/13 06:25:55;;;;;;;79.90;51.42;;;17.20;62.10;;;;;;4921437;28;89922;-43
2022/05/13 06:28:20;;;;;;;79.80;51.40;;;17.10;62.90;;;;;;4917074;28;90606;-45
2022/05/13 06:30:46;;;;;;;77.57;51.13;;;17.10;63.40;;;;;;4920871;28;89521;-47
2022/05/13 06:33:12;;;;;;;76.15;50.95;;;17.10;63.20;;;;;;4912433;28;89898;-44
2022/05/13 06:35:38;;;;;;;77.20;50.80;;;17.00;63.00;;;;;;4920731;28;89744;-45
2022/05/13 06:38:04;;;;;;;78.30;50.95;;;17.00;63.90;;;;;;4903390;28;90889;-46
2022/05/13 06:40:29;;;;;;;76.95;50.72;;;17.10;63.10;;;;;;4914302;28;93620;-41
2022/05/13 06:42:55;;;;;;;77.43;51.08;;;17.20;63.20;;;;;;4912829;28;94470;-45
2022/05/13 06:45:21;;;;;;;78.00;50.97;;;17.20;62.70;;;;;;4918026;28;90557;-46
2022/05/13 06:47:47;;;;;;;77.05;50.70;;;17.10;62.00;;;;;;4921917;28;96705;-43
2022/05/13 06:50:16;;;;;;;79.32;50.97;;;17.00;63.20;;;;;;4921028;28;95941;-43
2022/05/13 06:52:42;;;;;;;77.90;51.08;;;17.20;63.30;;;;;;4905919;28;94271;-43
2022/05/13 06:55:10;;;;;;;76.80;50.58;;;17.30;62.30;;;;;;4921345;28;89894;-45
2022/05/13 06:57:37;;;;;;;80.43;51.05;;;17.20;62.10;;;;;;4910456;28;93066;-43
2022/05/13 07:00:05;;;;;;;77.50;50.95;;;17.20;62.20;;;;;;4918747;28;89873;-42
2022/05/13 07:02:30;;;;;;;76.38;50.92;;;17.20;61.50;;;;;;4914410;28;90025;-42
2022/05/13 07:04:57;;;;;;;72.10;50.67;;;17.30;62.20;;;;;;4919195;28;88569;-44
2022/05/13 07:07:22;;;;;;;72.80;50.50;;;17.30;60.90;;;;;;4920871;28;89761;-44
2022/05/13 07:09:48;;;;;;;77.68;50.90;;;17.20;62.10;;;;;;4918571;28;91729;-46
2022/05/13 07:12:14;;;;;;;74.65;50.53;;;17.10;61.10;;;;;;4917468;28;92127;-43
2022/05/13 07:14:39;;;;;;;78.80;50.67;;;17.10;61.90;;;;;;4928151;28;89479;-42
2022/05/13 07:17:05;;;;;;;73.72;50.72;;;17.30;61.60;;;;;;4928956;28;89302;-45
2022/05/13 07:19:31;;;;;;;78.35;50.78;;;17.20;62.00;;;;;;4912936;28;90016;-44
2022/05/13 07:21:57;;;;;;;76.68;51.00;;;17.20;61.80;;;;;;4928567;28;90306;-43
2022/05/13 07:24:23;;;;;;;75.03;50.45;;;17.20;61.80;;;;;;4913844;28;94422;-45
2022/05/13 07:26:49;;;;;;;75.45;50.63;;;17.20;60.60;;;;;;4911917;28;90117;-44
2022/05/13 07:29:15;;;;;;;74.80;50.22;;;17.20;61.50;;;;;;4923847;28;89249;-42
2022/05/13 07:31:41;;;;;;;75.57;50.45;;;17.40;61.00;;;;;;4923156;28;90967;-44
2022/05/13 07:34:07;;;;;;;79.20;50.80;;;17.60;60.90;;;;;;4918904;28;90144;-44
2022/05/13 07:36:33;;;;;;;77.88;50.72;;;17.60;60.00;;;;;;4925559;28;91735;-44
2022/05/13 07:41:43;;;;;;;79.38;50.78;;;17.60;59.00;;;;;;4921935;28;90189;-42
2022/05/13 07:44:10;;;;;;;74.88;50.67;;;17.60;60.20;;;;;;4915382;28;90819;-41
2022/05/13 07:46:36;;;;;;;74.93;50.03;;;17.70;58.00;;;;;;4914057;28;91073;-44
2022/05/13 07:49:02;;;;;;;73.97;50.30;;;17.40;59.50;;;;;;4913219;28;90749;-48
2022/05/13 07:51:27;;;;;;;74.35;50.35;;;17.50;59.40;;;;;;4910585;28;95804;-45
2022/05/13 07:53:53;;;;;;;74.93;50.53;;;17.50;59.10;;;;;;4921761;28;89558;-44
2022/05/13 07:56:20;;;;;;;74.53;50.35;;;17.60;59.10;;;;;;4914486;28;90920;-41
2022/05/13 07:58:45;;;;;;;77.25;50.53;;;17.60;58.00;;;;;;4922859;28;90158;-42
2022/05/13 08:01:11;;;;;;;75.55;50.55;;;17.70;58.70;;;;;;4925641;28;93372;-42
2022/05/13 08:03:37;;;;;;;77.38;50.85;;;17.70;58.90;;;;;;4927051;28;93400;-44
2022/05/13 08:06:03;;;;;;;74.53;50.78;;;17.90;59.00;;;;;;4926944;28;90262;-40
2022/05/13 08:08:40;;;;;;;78.45;51.30;;;18.10;57.50;;;;;;4924038;28;90316;-41
2022/05/13 08:11:10;;;;;;;76.38;50.80;;;18.10;57.30;;;;;;4921293;28;89677;-44
2022/05/13 08:13:36;;;;;;;76.80;51.13;;;18.20;57.60;;;;;;4927284;28;89712;-46
2022/05/13 08:16:09;;;;;;;76.57;51.03;;;18.20;56.30;;;;;;4930824;28;89918;-43
2022/05/13 08:18:35;;;;;;;76.38;50.95;;;18.20;58.10;;;;;;4921772;28;89981;-41
2022/05/13 08:21:01;;;;;;;73.50;51.08;;;18.40;56.80;;;;;;4905407;28;90702;-41
2022/05/13 08:23:27;;;;;;;73.20;50.80;;;18.30;56.00;;;;;;4922174;28;91806;-44
2022/05/13 08:25:53;;;;;;;75.00;50.72;;;18.20;56.80;;;;;;4910009;28;91082;-44
2022/05/13 08:28:21;;;;;;;79.95;50.95;;;18.20;56.30;;;;;;4910942;28;97049;-42
2022/05/13 08:30:47;;;;;;;79.88;51.22;;;18.20;56.60;;;;;;4914000;28;98112;-44
2022/05/13 08:33:13;;;;;;;81.95;51.25;;;18.30;57.10;;;;;;4919902;28;91537;-47
2022/05/13 08:35:45;;;;;;;76.72;51.03;;;18.40;56.90;;;;;;4905740;28;91000;-45
2022/05/13 08:38:11;;;;;;;81.25;50.85;;;18.40;55.90;;;;;;4910430;28;90007;-44
2022/05/13 08:40:52;;;;;;;80.38;50.97;;;18.40;55.40;;;;;;4908865;28;90811;-44
2022/05/13 08:43:29;;;;;;;78.65;50.95;;;18.50;55.60;;;;;;4912777;28;89519;-46
2022/05/13 08:45:59;;;;;;;75.13;50.92;;;18.60;55.40;;;;;;4916424;28;91666;-45
2022/05/13 08:48:41;;;;;;;76.43;51.05;;;18.70;55.50;;;;;;4910261;28;90832;-44
2022/05/13 08:51:15;;;;;;;75.63;50.75;;;18.80;54.70;;;;;;4906192;28;92433;-44
2022/05/13 08:53:56;;;;;;;80.00;51.25;;;18.70;53.40;;;;;;4908959;28;91394;-42
2022/05/13 08:56:28;;;;;;;75.60;50.92;;;18.70;53.10;;;;;;4926247;28;90463;-45
2022/05/13 08:59:17;;;;;;;77.13;50.58;;;18.60;54.60;;;;;;4912717;28;91617;-44
2022/05/13 09:01:47;;;;;;;77.35;50.97;;;18.60;53.30;;;;;;4914016;28;89827;-45
2022/05/13 09:04:33;;;;;;;75.40;50.75;;;18.70;53.50;;;;;;4913039;28;91218;-45
2022/05/13 09:07:01;;;;;;;77.05;51.22;;;18.70;54.40;;;;;;4925119;28;91616;-42
2022/05/13 09:09:28;;;;;;;83.57;51.88;;;18.80;54.30;;;;;;4913430;28;90844;-44
2022/05/13 09:12:18;;;;;;;77.80;51.08;;;18.90;53.50;;;;;;4912036;28;91368;-43
2022/05/13 09:14:57;;;;;;;97.47;52.60;;;19.00;53.10;;;;;;4918717;28;90483;-41
2022/05/13 09:17:39;;;;;;;96.60;52.15;;;18.80;52.50;;;;;;4922353;28;91301;-40
2022/05/13 09:20:08;;;;;;;76.18;50.67;;;18.80;53.30;;;;;;4917869;28;95055;-44
2022/05/13 09:22:38;;;;;;;84.35;51.45;;;18.80;52.40;;;;;;4928666;28;90144;-40
2022/05/13 09:25:05;;;;;;;78.32;51.13;;;18.90;53.50;;;;;;4918738;28;90366;-43
2022/05/13 09:27:43;;;;;;;79.60;51.33;;;18.90;52.50;;;;;;4911606;28;89692;-46
2022/05/13 09:30:09;;;;;;;84.53;51.65;;;18.90;53.20;;;;;;4926407;28;89568;-43
2022/05/13 09:32:35;;;;;;;78.35;51.55;;;19.00;53.00;;;;;;4923537;28;90081;-42
2022/05/13 09:35:13;;;;;;;78.28;51.55;;;19.20;52.80;;;;;;4923714;28;89966;-42
2022/05/13 09:37:41;;;;;;;85.30;51.88;;;19.40;51.30;;;;;;4922680;28;90734;-43
2022/05/13 09:40:22;;;;;;;81.65;51.95;;;19.30;52.10;;;;;;4918108;28;91246;-43
2022/05/13 09:42:52;;;;;;;83.13;52.22;;;19.60;52.10;;;;;;4920489;28;91617;-43
2022/05/13 09:45:17;;;;;;;88.57;52.47;;;19.70;52.90;;;;;;4917606;28;90087;-44
2022/05/13 09:47:57;;;;;;;80.70;52.03;;;19.90;51.20;;;;;;4925609;28;90424;-45
2022/05/13 09:50:29;;;;;;;92.53;52.78;;;20.00;49.40;;;;;;4917305;28;96117;-43
2022/05/13 09:53:05;;;;;;;90.50;52.83;;;19.90;50.80;;;;;;4928068;28;90084;-44
2022/05/13 09:55:36;;;;;;;87.05;52.72;;;19.70;51.10;;;;;;4923649;28;89784;-43
2022/05/13 09:58:05;;;;;;;121.00;54.77;;;19.90;50.90;;;;;;4920501;28;90390;-44
2022/05/13 10:00:36;;;;;;;83.97;52.58;;;20.00;51.00;;;;;;4920747;28;90007;-43
2022/05/13 10:03:19;;;;;;;139.55;55.70;;;20.10;49.60;;;;;;4917885;28;91152;-42
2022/05/13 10:05:51;;;;;;;146.43;58.53;;;20.10;49.30;;;;;;4907214;28;91782;-43
2022/05/13 10:08:21;;;;;;;83.22;52.10;;;20.10;49.30;;;;;;4919592;28;96499;-42
2022/05/13 10:13:58;;;;;;;80.20;51.78;;;20.30;48.70;;;;;;4916584;28;91032;-46
2022/05/13 10:16:45;;;;;;;81.72;51.75;;;20.30;49.50;;;;;;4919315;28;90070;-43
2022/05/13 10:19:40;;;;;;;83.65;51.63;;;20.10;49.70;;;;;;4915201;28;89859;-42
2022/05/13 10:22:28;;;;;;;77.53;51.58;;;20.10;49.30;;;;;;4919946;28;91529;-46
2022/05/13 10:25:01;;;;;;;79.13;51.88;;;20.10;49.20;;;;;;4914105;28;95892;-44
2022/05/13 10:27:26;;;;;;;80.53;51.70;;;20.10;49.10;;;;;;4910355;28;89217;-45
2022/05/13 10:29:58;;;;;;;78.18;51.88;;;20.20;50.30;;;;;;4899238;28;91036;-45
2022/05/13 10:32:48;;;;;;;78.85;51.70;;;20.30;49.40;;;;;;4905126;28;92191;-44
2022/05/13 10:35:18;;;;;;;80.93;52.28;;;20.40;49.30;;;;;;4910227;28;91474;-44
2022/05/13 10:37:54;;;;;;;77.30;51.58;;;20.50;49.60;;;;;;4916676;28;94447;-44
2022/05/13 10:40:22;;;;;;;79.65;52.05;;;20.40;48.70;;;;;;4911928;28;90547;-43
2022/05/13 10:43:16;;;;;;;76.55;51.80;;;20.40;48.60;;;;;;4909254;28;89715;-43
2022/05/13 10:45:44;;;;;;;80.97;52.22;;;20.40;48.30;;;;;;4909052;28;98024;-45
2022/05/13 10:48:27;;;;;;;79.95;51.97;;;20.40;48.10;;;;;;4920329;28;89897;-42
2022/05/13 10:51:11;;;;;;;79.57;51.85;;;20.50;47.70;;;;;;4903903;28;96299;-44
2022/05/13 10:54:04;;;;;;;81.10;51.83;;;20.60;47.20;;;;;;4912542;28;90314;-44
2022/05/13 10:56:48;;;;;;;79.47;52.35;;;20.60;47.40;;;;;;4914511;28;91806;-42
2022/05/13 10:59:32;;;;;;;80.55;52.10;;;20.60;47.70;;;;;;4920330;28;90426;-43
2022/05/13 11:02:29;;;;;;;76.85;51.85;;;20.70;48.10;;;;;;4918010;28;92036;-42
2022/05/13 11:05:22;;;;;;;85.72;52.35;;;20.80;48.00;;;;;;4920965;28;92419;-42
2022/05/13 11:08:03;;;;;;;82.97;52.03;;;20.90;47.20;;;;;;4922084;28;95506;-46
2022/05/13 11:10:49;;;;;;;83.75;52.22;;;20.80;47.30;;;;;;4921249;28;90024;-44
2022/05/13 11:14:11;;;;;;;79.43;52.40;;;21.00;47.40;;;;;;4919802;28;90839;-43
2022/05/13 11:17:07;;;;;;;80.15;52.22;;;21.20;47.30;;;;;;4897985;28;92266;-46
2022/05/13 11:19:53;;;;;;;80.82;52.38;;;21.20;45.50;;;;;;4903866;28;90454;-43
2022/05/13 11:22:39;;;;;;;81.50;52.28;;;21.10;45.60;;;;;;4905910;28;94438;-46
2022/05/13 11:28:47;;;;;;;79.32;52.20;;;21.10;45.70;;;;;;4889657;28;95725;-49
2022/05/13 11:31:36;;;;;;;79.88;52.35;;;21.10;45.80;;;;;;4912650;28;92195;-42
2022/05/13 11:34:41;;;;;;;82.10;52.42;;;21.20;45.70;;;;;;4913800;28;89858;-45
2022/05/13 11:37:15;;;;;;;78.57;52.35;;;21.30;46.30;;;;;;4909056;28;92834;-46
2022/05/13 11:39:56;;;;;;;80.60;52.53;;;21.30;45.50;;;;;;4917755;28;95703;-42
2022/05/13 11:46:13;;;;;;;82.78;52.35;;;21.30;45.30;;;;;;4907451;28;91747;-42
2022/05/13 11:48:45;;;;;;;80.22;52.58;;;21.40;44.60;;;;;;4923164;28;91089;-42
2022/05/13 11:51:26;;;;;;;79.60;52.35;;;21.40;45.90;;;;;;4909515;28;90174;-42
2022/05/13 11:54:00;;;;;;;80.13;52.58;;;21.50;45.10;;;;;;4912831;28;98615;-42
2022/05/13 11:56:26;;;;;;;82.03;52.60;;;21.60;45.70;;;;;;4916022;28;95379;-44
2022/05/13 11:59:03;;;;;;;81.45;52.55;;;21.70;44.70;;;;;;4925765;28;91193;-41
2022/05/13 12:01:37;;;;;;;79.07;52.50;;;21.70;45.00;;;;;;4912212;28;90260;-43
2022/05/13 12:04:14;;;;;;;82.97;52.53;;;21.70;45.50;;;;;;4923495;28;90662;-44
2022/05/13 12:06:49;;;;;;;79.82;52.22;;;21.70;45.40;;;;;;4909517;28;91925;-43
2022/05/13 12:09:35;;;;;;;79.40;52.40;;;21.60;44.70;;;;;;4924536;28;89923;-42
2022/05/13 12:12:26;;;;;;;81.05;52.40;;;21.60;44.70;;;;;;4885210;28;92628;-41
2022/05/13 12:15:29;;;;;;;80.07;52.50;;;21.60;45.80;;;;;;4893879;28;91009;-43
2022/05/13 12:18:17;;;;;;;82.85;52.67;;;21.70;45.30;;;;;;4916682;28;90956;-41
2022/05/13 12:20:54;;;;;;;79.88;52.78;;;21.70;44.80;;;;;;4917854;28;90453;-44
2022/05/13 12:24:17;;;;;;;80.80;52.42;;;21.60;45.00;;;;;;4922986;28;93211;-44
2022/05/13 12:26:52;;;;;;;79.68;52.40;;;21.60;44.70;;;;;;4920809;28;95609;-43
2022/05/13 12:29:19;;;;;;;84.60;52.45;;;21.60;45.60;;;;;;4922876;28;90180;-47
2022/05/13 12:32:06;;;;;;;80.85;52.30;;;21.60;44.70;;;;;;4923780;28;90083;-43
2022/05/13 12:37:36;;;;;;;80.72;52.53;;;21.60;44.90;;;;;;4923567;28;91782;-44
2022/05/13 12:40:14;;;;;;;79.22;52.15;;;21.50;44.60;;;;;;4922013;28;90644;-42
2022/05/13 12:42:55;;;;;;;78.47;52.35;;;21.70;44.40;;;;;;4924485;28;90214;-42
2022/05/13 12:45:41;;;;;;;83.43;52.60;;;21.80;44.80;;;;;;4915543;28;91171;-43
2022/05/13 12:48:11;;;;;;;80.88;52.60;;;21.90;45.10;;;;;;4908611;28;90351;-45
2022/05/13 12:50:48;;;;;;;81.72;52.63;;;21.90;44.90;;;;;;4911542;28;90158;-45
2022/05/13 12:53:32;;;;;;;79.82;52.35;;;21.90;44.50;;;;;;4915643;28;90864;-43
2022/05/13 12:56:27;;;;;;;78.85;52.10;;;21.80;44.50;;;;;;4915039;28;91838;-44
2022/05/13 12:59:15;;;;;;;78.32;52.45;;;21.80;44.50;;;;;;4903111;28;89814;-44
2022/05/13 13:01:49;;;;;;;80.97;52.25;;;21.80;44.10;;;;;;4896729;28;92714;-45
2022/05/13 13:04:22;;;;;;;79.78;52.65;;;21.80;44.10;;;;;;4879305;28;99293;-42
2022/05/13 13:06:49;;;;;;;79.45;52.67;;;21.80;44.10;;;;;;4888142;28;90977;-44
2022/05/13 13:09:39;;;;;;;82.45;53.13;;;21.80;43.80;;;;;;4900141;28;91870;-44
2022/05/13 13:12:16;;;;;;;82.20;52.83;;;21.90;44.00;;;;;;4904639;28;90258;-45
2022/05/13 13:14:53;;;;;;;85.60;52.60;;;21.90;43.20;;;;;;4924593;28;95492;-45
2022/05/13 13:17:39;;;;;;;79.15;52.50;;;21.90;44.50;;;;;;4915809;28;90302;-43
2022/05/13 13:20:08;;;;;;;80.45;52.88;;;21.90;43.90;;;;;;4908536;28;96012;-43
2022/05/13 13:22:45;;;;;;;79.07;52.80;;;21.90;44.20;;;;;;4916216;28;90585;-42
2022/05/13 13:25:29;;;;;;;78.80;52.60;;;22.00;43.40;;;;;;4925644;28;91641;-45